KWHP/WHP METAR and TAF weather

Enter ICAO airport designator
Station Type Date Time Source
KWHP METAR 2020/04/09 19:55 UTC NOAA

KWHP 091955Z 09005KT 7SM -RA OVC035 10/09 A3013


Station Type Date Time Source
KWHP Decoded METAR 2020/04/09 19:55 UTC NOAA

Los Angeles, Whiteman Airport, CA, United States (KWHP) 34-15N 118-24W
Apr 09, 2020 - 03:55 PM EDT / 2020.04.09 1955 UTC
Wind: from the E (090 degrees) at 6 MPH (5 KT):0
Visibility: 7 mile(s):0
Sky conditions: overcast
Weather: light rain
Temperature: 50 F (10 C)
Dew Point: 48 F (9 C)
Relative Humidity: 93%
Pressure (altimeter): 30.13 in. Hg (1020 hPa)
ob: KWHP 091955Z 09005KT 7SM -RA OVC035 10/09 A3013
cycle: 20

Station Type Date Time Source
KWHP TAF UTC NOAA

Error!

Example: see airport list